createdAt,value
2019-02-28T00:00:43.455Z,1.80
2019-02-28T00:01:46.468Z,2.80
2019-02-28T00:02:43.446Z,4.30
2019-02-28T00:03:43.423Z,6.00
2019-02-28T00:04:43.415Z,3.70
2019-02-28T00:05:43.399Z,9.10
2019-02-28T00:06:44.253Z,3.60
2019-02-28T00:07:43.411Z,2.50
2019-02-28T00:08:43.367Z,4.20
2019-02-28T00:09:43.357Z,2.80
2019-02-28T00:10:43.356Z,2.90
2019-02-28T00:11:43.336Z,5.30
2019-02-28T00:12:45.228Z,5.30
2019-02-28T00:13:43.340Z,5.60
2019-02-28T00:14:43.300Z,4.00
2019-02-28T00:15:43.289Z,4.60
2019-02-28T00:16:43.305Z,3.60
2019-02-28T00:17:43.684Z,3.60
2019-02-28T00:18:43.256Z,4.00
2019-02-28T00:19:43.277Z,1.60
2019-02-28T00:20:43.236Z,3.20
2019-02-28T00:21:43.233Z,2.90
2019-02-28T00:22:43.215Z,2.80
2019-02-28T00:23:43.199Z,2.60
2019-02-28T00:24:43.188Z,5.50
2019-02-28T00:25:43.217Z,2.00
2019-02-28T00:26:47.650Z,4.50
2019-02-28T00:27:43.156Z,2.80
2019-02-28T00:28:43.156Z,2.20
2019-02-28T00:29:43.132Z,4.10
2019-02-28T00:30:43.123Z,4.40
2019-02-28T00:31:43.122Z,3.00
2019-02-28T00:32:43.099Z,3.10
2019-02-28T00:33:43.090Z,3.10
2019-02-28T00:34:43.086Z,2.10
2019-02-28T00:35:44.753Z,4.30
2019-02-28T00:36:43.095Z,3.40
2019-02-28T00:37:43.043Z,3.60
2019-02-28T00:38:43.033Z,3.10
2019-02-28T00:39:43.022Z,3.40
2019-02-28T00:40:43.021Z,5.20
2019-02-28T00:41:44.502Z,4.50
2019-02-28T00:42:43.020Z,4.10
2019-02-28T00:43:42.976Z,3.40
2019-02-28T00:44:42.970Z,5.70
2019-02-28T00:45:42.955Z,6.10
2019-02-28T00:46:45.206Z,1.60
2019-02-28T00:47:42.931Z,4.10
2019-02-28T00:48:42.964Z,2.20
2019-02-28T00:49:42.910Z,3.30
2019-02-28T00:50:42.900Z,1.70
2019-02-28T00:51:42.887Z,5.50
2019-02-28T00:52:42.888Z,2.20
2019-02-28T00:53:42.866Z,3.40
2019-02-28T00:54:44.342Z,2.10
2019-02-28T00:55:45.977Z,3.10
2019-02-28T00:56:42.833Z,3.60
2019-02-28T00:57:42.822Z,3.70
2019-02-28T00:58:42.838Z,3.10
2019-02-28T00:59:42.813Z,4.60
2019-02-28T01:00:42.826Z,4.20
2019-02-28T01:01:43.125Z,2.90
2019-02-28T01:02:42.766Z,1.50
2019-02-28T01:03:42.760Z,2.60
2019-02-28T01:04:42.754Z,2.70
2019-02-28T01:05:42.733Z,7.00
2019-02-28T01:06:42.761Z,3.50
2019-02-28T01:07:42.712Z,5.20
2019-02-28T01:08:45.583Z,3.20
2019-02-28T01:09:42.689Z,5.10
2019-02-28T01:10:42.689Z,3.90
2019-02-28T01:11:44.771Z,2.80
2019-02-28T01:12:42.655Z,3.70
2019-02-28T01:13:42.644Z,4.30
2019-02-28T01:14:42.633Z,2.00
2019-02-28T01:15:44.860Z,2.10
2019-02-28T01:16:42.616Z,3.20
2019-02-28T01:17:42.614Z,3.60
2019-02-28T01:18:42.590Z,3.60
2019-02-28T01:19:42.578Z,3.10
2019-02-28T01:20:42.567Z,3.00
2019-02-28T01:21:42.567Z,2.70
2019-02-28T01:22:42.546Z,4.40
2019-02-28T01:23:42.549Z,2.30
2019-02-28T01:24:42.529Z,2.40
2019-02-28T01:25:42.513Z,4.70
2019-02-28T01:26:43.314Z,3.40
2019-02-28T01:27:42.491Z,1.60
2019-02-28T01:28:42.479Z,5.60
2019-02-28T01:29:42.498Z,4.10
2019-02-28T01:30:42.456Z,3.60
2019-02-28T01:31:43.258Z,2.80
2019-02-28T01:32:42.434Z,3.20
2019-02-28T01:33:42.423Z,5.40
2019-02-28T01:34:42.426Z,4.60
2019-02-28T01:35:42.408Z,3.50
2019-02-28T01:36:42.389Z,2.30
2019-02-28T01:37:42.376Z,4.90
2019-02-28T01:38:42.365Z,3.10
2019-02-28T01:39:42.395Z,3.00
2019-02-28T01:40:42.345Z,2.00
2019-02-28T01:41:45.120Z,4.10
2019-02-28T01:42:42.324Z,3.70
2019-02-28T01:43:42.315Z,3.30
2019-02-28T01:44:42.300Z,3.60
2019-02-28T01:45:44.225Z,5.50
2019-02-28T01:46:42.279Z,3.00
2019-02-28T01:47:42.274Z,3.80
2019-02-28T01:48:42.257Z,4.80
2019-02-28T01:49:42.247Z,3.90
2019-02-28T01:50:42.267Z,3.70
2019-02-28T01:51:42.225Z,4.80
2019-02-28T01:52:45.677Z,5.90
2019-02-28T01:53:42.209Z,4.20
2019-02-28T01:54:42.193Z,2.30
2019-02-28T01:55:42.176Z,3.10
2019-02-28T01:56:42.180Z,3.30
2019-02-28T01:57:44.002Z,4.20
2019-02-28T01:58:42.145Z,4.90
2019-02-28T01:59:42.158Z,3.50
2019-02-28T02:00:42.122Z,3.90
2019-02-28T02:01:42.112Z,5.40
2019-02-28T02:02:42.112Z,3.80
2019-02-28T02:03:42.091Z,3.90
2019-02-28T02:04:43.164Z,5.90
2019-02-28T02:05:42.072Z,2.50
2019-02-28T02:06:42.056Z,2.40
2019-02-28T02:07:42.080Z,4.00
2019-02-28T02:08:42.034Z,3.00
2019-02-28T02:09:42.625Z,4.60
2019-02-28T02:10:42.012Z,5.10
2019-02-28T02:11:42.012Z,2.70
2019-02-28T02:12:41.993Z,3.20
2019-02-28T02:13:42.004Z,4.20
2019-02-28T02:14:44.655Z,4.10
2019-02-28T02:15:41.956Z,2.90
2019-02-28T02:16:41.945Z,4.50
2019-02-28T02:17:41.951Z,5.30
2019-02-28T02:18:43.412Z,9.10
2019-02-28T02:19:41.943Z,5.50
2019-02-28T02:20:41.906Z,6.60
2019-02-28T02:21:41.891Z,7.90
2019-02-28T02:22:44.489Z,4.30
2019-02-28T02:23:41.875Z,4.20
2019-02-28T02:24:41.859Z,4.80
2019-02-28T02:25:41.862Z,5.80
2019-02-28T02:26:42.327Z,8.40
2019-02-28T02:27:41.824Z,4.20
2019-02-28T02:28:41.812Z,6.60
2019-02-28T02:29:41.820Z,5.60
2019-02-28T02:30:41.789Z,9.00
2019-02-28T02:31:43.609Z,7.40
2019-02-28T02:32:41.774Z,5.40
2019-02-28T02:33:41.761Z,8.20
2019-02-28T02:34:41.758Z,5.60
2019-02-28T02:35:42.584Z,8.20
2019-02-28T02:36:41.725Z,6.30
2019-02-28T02:37:41.715Z,7.90
2019-02-28T02:38:41.887Z,6.80
2019-02-28T02:39:41.691Z,8.00
2019-02-28T02:40:41.680Z,10.30
2019-02-28T02:41:41.698Z,7.30
2019-02-28T02:42:47.470Z,5.40
2019-02-28T02:43:42.648Z,5.80
2019-02-28T02:44:41.637Z,5.80
2019-02-28T02:45:43.362Z,4.60
2019-02-28T02:46:41.613Z,7.80
2019-02-28T02:47:41.636Z,11.90
2019-02-28T02:48:42.309Z,8.90
2019-02-28T02:49:41.586Z,9.10
2019-02-28T02:50:41.568Z,7.80
2019-02-28T02:51:49.088Z,7.20
2019-02-28T02:52:42.602Z,8.20
2019-02-28T02:53:42.011Z,9.00
2019-02-28T02:54:41.524Z,7.80
2019-02-28T02:55:41.514Z,6.30
2019-02-28T02:56:42.196Z,8.10
2019-02-28T02:57:41.488Z,6.30
2019-02-28T02:58:41.492Z,6.90
2019-02-28T02:59:41.489Z,8.30
2019-02-28T03:00:41.458Z,6.90
2019-02-28T03:01:41.446Z,7.50
2019-02-28T03:02:41.436Z,7.20
2019-02-28T03:03:44.231Z,9.10
2019-02-28T03:04:41.414Z,4.70
2019-02-28T03:05:41.419Z,7.50
2019-02-28T03:06:41.391Z,12.20
2019-02-28T03:07:41.380Z,9.10
2019-02-28T03:08:41.367Z,7.60
2019-02-28T03:09:43.454Z,6.90
2019-02-28T03:10:41.347Z,7.20
2019-02-28T03:11:41.344Z,8.30
2019-02-28T03:12:41.322Z,7.40
2019-02-28T03:13:43.703Z,7.30
2019-02-28T03:14:41.301Z,7.10
2019-02-28T03:15:41.330Z,6.90
2019-02-28T03:16:41.279Z,8.00
2019-02-28T03:17:46.494Z,11.10
2019-02-28T03:18:42.263Z,6.00
2019-02-28T03:19:41.244Z,10.00
2019-02-28T03:20:42.488Z,8.10
2019-02-28T03:21:41.240Z,8.00
2019-02-28T03:22:41.213Z,9.00
2019-02-28T03:23:41.226Z,7.10
2019-02-28T03:24:41.190Z,8.70
2019-02-28T03:25:41.193Z,8.00
2019-02-28T03:26:42.045Z,7.50
2019-02-28T03:27:41.156Z,5.30
2019-02-28T03:28:41.147Z,10.90
2019-02-28T03:29:43.819Z,8.90
2019-02-28T03:30:41.145Z,7.90
2019-02-28T03:31:41.115Z,5.50
2019-02-28T03:32:42.701Z,7.50
2019-02-28T03:33:41.105Z,9.70
2019-02-28T03:34:41.084Z,11.00
2019-02-28T03:35:43.897Z,19.60
2019-02-28T03:36:41.070Z,9.50
2019-02-28T03:37:41.047Z,10.50
2019-02-28T03:38:48.560Z,9.90
2019-02-28T03:39:42.029Z,9.80
2019-02-28T03:40:41.274Z,8.20
2019-02-28T03:41:41.009Z,12.20
2019-02-28T03:42:41.005Z,10.80
2019-02-28T03:43:43.946Z,11.00
2019-02-28T03:44:40.982Z,11.10
2019-02-28T03:45:40.965Z,8.20
2019-02-28T03:46:46.407Z,13.60
2019-02-28T03:47:41.940Z,10.10
2019-02-28T03:48:40.926Z,10.80
2019-02-28T03:49:48.553Z,7.40
2019-02-28T03:50:41.903Z,15.40
2019-02-28T03:51:40.900Z,14.30
2019-02-28T03:52:43.957Z,9.80
2019-02-28T03:53:40.877Z,13.30
2019-02-28T03:54:40.877Z,12.50
2019-02-28T03:55:41.641Z,13.60
2019-02-28T03:56:40.851Z,9.90
2019-02-28T03:57:40.825Z,15.70
2019-02-28T03:58:42.886Z,13.40
2019-02-28T03:59:40.822Z,13.80
2019-02-28T04:00:40.800Z,15.20
2019-02-28T04:01:44.573Z,10.10
2019-02-28T04:02:40.772Z,10.90
2019-02-28T04:03:40.759Z,9.80
2019-02-28T04:04:48.793Z,10.50
2019-02-28T04:05:41.754Z,11.80
2019-02-28T04:06:41.055Z,13.10
2019-02-28T04:07:40.727Z,11.90
2019-02-28T04:08:40.712Z,11.80
2019-02-28T04:09:44.138Z,13.40
2019-02-28T04:10:40.680Z,12.70
2019-02-28T04:11:40.705Z,12.30
2019-02-28T04:12:44.921Z,13.00
2019-02-28T04:13:41.647Z,12.30
2019-02-28T04:14:40.643Z,21.40
2019-02-28T04:15:49.825Z,9.60
2019-02-28T04:16:41.645Z,15.10
2019-02-28T04:17:40.636Z,11.30
2019-02-28T04:18:46.148Z,12.50
2019-02-28T04:19:41.580Z,16.40
2019-02-28T04:20:40.570Z,11.10
2019-02-28T04:21:46.171Z,13.00
2019-02-28T04:22:41.563Z,11.20
2019-02-28T04:23:40.544Z,20.70
2019-02-28T04:24:40.545Z,12.30
2019-02-28T04:25:40.547Z,9.50
2019-02-28T04:26:40.506Z,11.10
2019-02-28T04:27:41.801Z,13.50
2019-02-28T04:28:40.539Z,10.00
2019-02-28T04:29:40.485Z,13.70
2019-02-28T04:30:43.857Z,11.60
2019-02-28T04:31:40.453Z,9.60
2019-02-28T04:32:40.456Z,11.40
2019-02-28T04:33:40.468Z,12.10
2019-02-28T04:34:40.415Z,11.30
2019-02-28T04:35:40.410Z,16.50
2019-02-28T04:36:40.415Z,9.80
2019-02-28T04:37:44.595Z,15.40
2019-02-28T04:38:41.383Z,9.70
2019-02-28T04:39:40.368Z,11.30
2019-02-28T04:40:40.373Z,13.00
2019-02-28T04:41:40.355Z,17.50
2019-02-28T04:42:40.327Z,12.70
2019-02-28T04:43:41.636Z,10.50
2019-02-28T04:44:40.317Z,10.90
2019-02-28T04:45:40.293Z,12.30
2019-02-28T04:46:40.295Z,19.90
2019-02-28T04:47:41.421Z,15.30
2019-02-28T04:48:40.264Z,14.40
2019-02-28T04:49:40.263Z,16.30
2019-02-28T04:50:40.239Z,15.20
2019-02-28T04:51:41.059Z,14.90
2019-02-28T04:52:46.712Z,17.20
2019-02-28T04:53:41.212Z,10.30
2019-02-28T04:54:40.195Z,11.40
2019-02-28T04:55:40.200Z,13.10
2019-02-28T04:56:42.343Z,12.90
2019-02-28T04:57:41.159Z,10.10
2019-02-28T04:58:40.150Z,13.20
2019-02-28T04:59:40.150Z,15.60
2019-02-28T05:00:40.128Z,13.40
2019-02-28T05:01:40.118Z,16.30
2019-02-28T05:02:40.118Z,13.90
2019-02-28T05:03:40.096Z,13.40
2019-02-28T05:04:40.084Z,11.50
2019-02-28T05:05:40.084Z,12.60
2019-02-28T05:06:40.068Z,11.50
2019-02-28T05:07:40.074Z,13.80
2019-02-28T05:08:40.040Z,12.00
2019-02-28T05:09:40.037Z,10.10
2019-02-28T05:10:40.025Z,15.00
2019-02-28T05:11:40.015Z,11.70
2019-02-28T05:12:41.031Z,11.20
2019-02-28T05:13:41.146Z,11.80
2019-02-28T05:14:39.985Z,16.10
2019-02-28T05:15:41.099Z,17.60
2019-02-28T05:16:39.949Z,12.60
2019-02-28T05:17:39.956Z,10.50
2019-02-28T05:18:39.931Z,13.70
2019-02-28T05:19:39.945Z,17.20
2019-02-28T05:20:45.184Z,10.40
2019-02-28T05:21:40.896Z,12.70
2019-02-28T05:22:39.884Z,11.30
2019-02-28T05:23:39.879Z,15.20
2019-02-28T05:24:42.593Z,14.10
2019-02-28T05:25:39.865Z,13.60
2019-02-28T05:26:39.843Z,10.40
2019-02-28T05:27:39.831Z,14.40
2019-02-28T05:28:41.170Z,14.80
2019-02-28T05:29:39.819Z,10.10
2019-02-28T05:30:41.499Z,13.30
2019-02-28T05:31:39.785Z,18.20
2019-02-28T05:32:39.785Z,13.60
2019-02-28T05:33:41.914Z,12.40
2019-02-28T05:34:39.750Z,12.60
2019-02-28T05:35:39.784Z,12.40
2019-02-28T05:36:39.728Z,11.10
2019-02-28T05:37:39.719Z,13.00
2019-02-28T05:38:39.708Z,14.10
2019-02-28T05:39:39.694Z,11.60
2019-02-28T05:40:41.333Z,13.90
2019-02-28T05:41:39.714Z,9.90
2019-02-28T05:42:39.664Z,14.50
2019-02-28T05:43:39.650Z,17.20
2019-02-28T05:44:40.432Z,9.20
2019-02-28T05:45:39.635Z,12.90
2019-02-28T05:46:39.625Z,12.50
2019-02-28T05:47:46.248Z,9.70
2019-02-28T05:48:40.595Z,15.80
2019-02-28T05:49:40.745Z,10.60
2019-02-28T05:50:39.579Z,11.50
2019-02-28T05:51:39.565Z,8.00
2019-02-28T05:52:39.558Z,15.20
2019-02-28T05:53:41.368Z,11.70
2019-02-28T05:54:39.529Z,14.80
2019-02-28T05:55:39.518Z,12.50
2019-02-28T05:56:39.507Z,11.40
2019-02-28T05:57:43.292Z,8.40
2019-02-28T05:58:40.517Z,16.50
2019-02-28T05:59:39.479Z,11.60
2019-02-28T06:00:39.461Z,9.70
2019-02-28T06:01:39.452Z,13.50
2019-02-28T06:02:39.447Z,13.00
2019-02-28T06:03:39.427Z,13.00
2019-02-28T06:04:39.451Z,12.40
2019-02-28T06:05:39.418Z,12.40
2019-02-28T06:06:39.396Z,13.50
2019-02-28T06:07:39.389Z,9.70
2019-02-28T06:08:40.020Z,14.00
2019-02-28T06:09:39.359Z,12.70
2019-02-28T06:10:39.402Z,11.40
2019-02-28T06:11:39.345Z,14.00
2019-02-28T06:12:40.396Z,11.60
2019-02-28T06:13:39.327Z,11.30
2019-02-28T06:14:39.309Z,12.20
2019-02-28T06:15:39.298Z,10.40
2019-02-28T06:16:39.305Z,12.80
2019-02-28T06:17:39.280Z,13.00
2019-02-28T06:18:39.269Z,12.40
2019-02-28T06:19:40.277Z,12.30
2019-02-28T06:20:39.260Z,15.50
2019-02-28T06:21:39.227Z,11.30
2019-02-28T06:22:39.215Z,14.70
2019-02-28T06:23:40.780Z,12.40
2019-02-28T06:24:39.196Z,9.90
2019-02-28T06:25:39.192Z,16.50
2019-02-28T06:26:39.197Z,11.40
2019-02-28T06:27:41.859Z,20.20
2019-02-28T06:28:39.158Z,14.10
2019-02-28T06:29:39.149Z,17.40
2019-02-28T06:30:41.550Z,13.40
2019-02-28T06:31:39.116Z,11.10
2019-02-28T06:32:39.119Z,13.90
2019-02-28T06:33:39.110Z,12.50
2019-02-28T06:34:39.494Z,13.70
2019-02-28T06:35:39.081Z,13.50
2019-02-28T06:36:39.061Z,16.60
2019-02-28T06:37:39.218Z,15.90
2019-02-28T06:38:39.066Z,11.80
2019-02-28T06:39:39.040Z,12.70
2019-02-28T06:40:39.018Z,11.80
2019-02-28T06:41:39.954Z,16.50
2019-02-28T06:42:38.995Z,15.50
2019-02-28T06:43:38.983Z,14.20
2019-02-28T06:44:38.985Z,13.40
2019-02-28T06:45:38.964Z,12.40
2019-02-28T06:46:39.813Z,14.70
2019-02-28T06:47:39.103Z,18.70
2019-02-28T06:48:38.927Z,11.30
2019-02-28T06:49:41.921Z,12.20
2019-02-28T06:50:38.905Z,12.90
2019-02-28T06:51:38.894Z,11.20
2019-02-28T06:52:38.887Z,16.90
2019-02-28T06:53:38.877Z,15.00
2019-02-28T06:54:39.854Z,15.40
2019-02-28T06:55:38.880Z,18.70
2019-02-28T06:56:38.839Z,13.80
2019-02-28T06:57:38.828Z,14.70
2019-02-28T06:58:38.826Z,15.20
2019-02-28T06:59:39.172Z,14.70
2019-02-28T07:00:38.795Z,15.20
2019-02-28T07:01:38.795Z,13.40
2019-02-28T07:02:38.772Z,13.70
2019-02-28T07:03:39.804Z,14.20
2019-02-28T07:04:38.752Z,15.70
2019-02-28T07:05:38.770Z,14.50
2019-02-28T07:06:38.728Z,11.60
2019-02-28T07:07:38.717Z,15.00
2019-02-28T07:08:38.705Z,13.20
2019-02-28T07:09:38.695Z,15.70
2019-02-28T07:10:38.686Z,12.90
2019-02-28T07:11:38.706Z,13.40
2019-02-28T07:12:38.663Z,15.50
2019-02-28T07:13:39.966Z,15.90
2019-02-28T07:14:38.638Z,14.70
2019-02-28T07:15:38.629Z,20.00
2019-02-28T07:16:38.622Z,14.90
2019-02-28T07:17:38.632Z,17.20
2019-02-28T07:18:38.609Z,12.90
2019-02-28T07:19:38.584Z,15.50
2019-02-28T07:20:38.575Z,12.80
2019-02-28T07:21:42.994Z,12.70
2019-02-28T07:22:40.137Z,12.20
2019-02-28T07:23:38.573Z,14.10
2019-02-28T07:24:38.530Z,14.70
2019-02-28T07:25:38.518Z,15.50
2019-02-28T07:26:38.506Z,13.60
2019-02-28T07:27:38.495Z,14.50
2019-02-28T07:28:38.484Z,16.30
2019-02-28T07:29:38.493Z,16.40
2019-02-28T07:30:38.460Z,12.90
2019-02-28T07:31:38.458Z,15.70
2019-02-28T07:32:38.438Z,18.90
2019-02-28T07:33:41.241Z,13.50
2019-02-28T07:34:39.420Z,14.90
2019-02-28T07:35:38.412Z,16.80
2019-02-28T07:36:38.399Z,22.40
2019-02-28T07:37:38.383Z,12.90
2019-02-28T07:38:38.371Z,17.80
2019-02-28T07:39:40.414Z,20.20
2019-02-28T07:40:38.349Z,25.70
2019-02-28T07:41:38.343Z,13.80
2019-02-28T07:42:38.588Z,14.80
2019-02-28T07:43:38.322Z,20.70
2019-02-28T07:44:38.311Z,16.70
2019-02-28T07:45:38.314Z,16.80
2019-02-28T07:46:38.549Z,19.00
2019-02-28T07:47:38.307Z,20.20
2019-02-28T07:48:38.263Z,21.40
2019-02-28T07:49:38.248Z,15.90
2019-02-28T07:50:38.237Z,11.80
2019-02-28T07:51:38.231Z,15.20
2019-02-28T07:52:38.217Z,14.60
2019-02-28T07:53:40.912Z,16.30
2019-02-28T07:54:38.196Z,15.40
2019-02-28T07:55:38.181Z,16.20
2019-02-28T07:56:42.832Z,15.60
2019-02-28T07:57:38.156Z,15.80
2019-02-28T07:58:38.159Z,16.80
2019-02-28T07:59:42.422Z,18.80
2019-02-28T08:00:38.126Z,13.90
2019-02-28T08:01:38.117Z,16.30
2019-02-28T08:02:39.228Z,17.00
2019-02-28T08:03:38.116Z,27.90
2019-02-28T08:04:38.080Z,14.50
2019-02-28T08:05:38.076Z,18.20
2019-02-28T08:06:39.207Z,19.60
2019-02-28T08:07:38.056Z,14.40
2019-02-28T08:08:38.036Z,16.10
2019-02-28T08:09:40.564Z,15.60
2019-02-28T08:10:38.019Z,17.30
2019-02-28T08:11:38.009Z,12.80
2019-02-28T08:12:38.001Z,19.90
2019-02-28T08:13:38.687Z,10.20
2019-02-28T08:14:37.969Z,15.40
2019-02-28T08:15:37.959Z,19.30
2019-02-28T08:16:37.948Z,14.70
2019-02-28T08:17:40.607Z,15.20
2019-02-28T08:18:38.934Z,16.40
2019-02-28T08:19:37.911Z,18.10
2019-02-28T08:20:37.922Z,22.40
2019-02-28T08:21:43.972Z,19.40
2019-02-28T08:22:38.877Z,15.00
2019-02-28T08:23:37.875Z,15.50
2019-02-28T08:24:37.855Z,15.50
2019-02-28T08:25:39.764Z,20.10
2019-02-28T08:26:37.865Z,19.60
2019-02-28T08:27:37.829Z,20.70
2019-02-28T08:28:37.812Z,16.20
2019-02-28T08:29:37.808Z,16.60
2019-02-28T08:30:37.788Z,16.10
2019-02-28T08:31:37.776Z,18.60
2019-02-28T08:32:42.738Z,17.30
2019-02-28T08:33:38.761Z,12.50
2019-02-28T08:34:37.746Z,19.10
2019-02-28T08:35:37.736Z,15.20
2019-02-28T08:36:37.717Z,15.70
2019-02-28T08:37:37.708Z,16.40
2019-02-28T08:38:37.729Z,15.40
2019-02-28T08:39:41.145Z,23.80
2019-02-28T08:40:37.673Z,17.90
2019-02-28T08:41:37.670Z,13.80
2019-02-28T08:42:39.677Z,13.40
2019-02-28T08:43:37.640Z,18.90
2019-02-28T08:44:37.659Z,19.70
2019-02-28T08:45:37.619Z,21.20
2019-02-28T08:46:37.608Z,16.50
2019-02-28T08:47:37.605Z,15.40
2019-02-28T08:48:37.589Z,19.90
2019-02-28T08:49:42.155Z,17.30
2019-02-28T08:50:38.577Z,23.00
2019-02-28T08:51:37.551Z,22.00
2019-02-28T08:52:40.970Z,15.30
2019-02-28T08:53:37.531Z,18.10
2019-02-28T08:54:37.555Z,20.10
2019-02-28T08:55:38.400Z,16.20
2019-02-28T08:56:37.495Z,16.30
2019-02-28T08:57:37.492Z,18.40
2019-02-28T08:58:38.362Z,19.70
2019-02-28T08:59:37.471Z,16.00
2019-02-28T09:00:37.822Z,14.40
2019-02-28T09:01:40.170Z,36.70
2019-02-28T09:02:37.428Z,15.50
2019-02-28T09:03:37.418Z,17.00
2019-02-28T09:04:41.161Z,17.00
2019-02-28T09:05:38.414Z,19.40
2019-02-28T09:06:37.887Z,16.40
2019-02-28T09:07:37.373Z,20.70
2019-02-28T09:08:37.362Z,21.00
2019-02-28T09:09:37.353Z,16.70
2019-02-28T09:10:37.524Z,18.70
2019-02-28T09:11:37.354Z,19.50
2019-02-28T09:12:37.322Z,15.80
2019-02-28T09:13:39.951Z,20.20
2019-02-28T09:14:38.297Z,21.90
2019-02-28T09:15:37.284Z,16.60
2019-02-28T09:16:39.688Z,15.70
2019-02-28T09:17:37.877Z,25.60
2019-02-28T09:18:37.251Z,21.70
2019-02-28T09:19:37.239Z,19.90
2019-02-28T09:20:37.229Z,19.10
2019-02-28T09:21:37.223Z,17.40
2019-02-28T09:22:37.238Z,16.20
2019-02-28T09:23:37.747Z,18.50
2019-02-28T09:24:37.181Z,12.40
2019-02-28T09:25:37.171Z,19.90
2019-02-28T09:26:37.160Z,20.00
2019-02-28T09:27:38.777Z,21.80
2019-02-28T09:28:37.149Z,17.70
2019-02-28T09:29:37.134Z,18.60
2019-02-28T09:30:37.126Z,14.20
2019-02-28T09:31:39.052Z,18.80
2019-02-28T09:32:37.092Z,18.80
2019-02-28T09:33:37.078Z,18.10
2019-02-28T09:34:37.099Z,19.00
2019-02-28T09:35:37.072Z,20.20
2019-02-28T09:36:37.044Z,15.00
2019-02-28T09:37:37.036Z,21.50
2019-02-28T09:38:37.026Z,16.50
2019-02-28T09:39:37.013Z,15.40
2019-02-28T09:40:37.012Z,18.20
2019-02-28T09:41:40.198Z,19.00
2019-02-28T09:42:36.979Z,22.40
2019-02-28T09:43:36.968Z,15.50
2019-02-28T09:44:36.955Z,15.70
2019-02-28T09:45:39.844Z,16.40
2019-02-28T09:46:36.933Z,15.80
2019-02-28T09:47:36.930Z,22.00
2019-02-28T09:48:37.921Z,19.30
2019-02-28T09:49:36.905Z,15.20
2019-02-28T09:50:36.890Z,23.90
2019-02-28T09:51:36.888Z,15.90
2019-02-28T09:52:41.298Z,17.60
2019-02-28T09:53:36.857Z,18.10
2019-02-28T09:54:36.844Z,15.50
2019-02-28T09:55:36.856Z,19.10
2019-02-28T09:56:36.821Z,17.90
2019-02-28T09:57:36.815Z,17.10
2019-02-28T09:58:36.797Z,20.10
2019-02-28T09:59:37.816Z,20.50
2019-02-28T10:00:36.786Z,20.50
2019-02-28T10:01:36.761Z,14.70
2019-02-28T10:02:36.752Z,15.80
2019-02-28T10:03:36.739Z,16.20
2019-02-28T10:04:36.730Z,22.00
2019-02-28T10:05:39.036Z,17.00
2019-02-28T10:06:37.709Z,15.70
2019-02-28T10:07:36.696Z,14.30
2019-02-28T10:08:38.015Z,22.80
2019-02-28T10:09:36.674Z,16.00
2019-02-28T10:10:36.662Z,19.00
2019-02-28T10:11:36.691Z,15.60
2019-02-28T10:12:39.474Z,16.90
2019-02-28T10:13:37.628Z,13.30
2019-02-28T10:14:36.616Z,17.00
2019-02-28T10:15:38.738Z,16.50
2019-02-28T10:16:37.603Z,21.50
2019-02-28T10:17:36.611Z,20.30
2019-02-28T10:18:38.900Z,16.80
2019-02-28T10:19:43.878Z,20.70
2019-02-28T10:20:37.547Z,17.80
2019-02-28T10:21:39.488Z,17.50
2019-02-28T10:22:36.525Z,20.80
2019-02-28T10:23:36.543Z,26.80
2019-02-28T10:24:36.502Z,19.50
2019-02-28T10:25:41.020Z,13.00
2019-02-28T10:26:37.477Z,18.90
2019-02-28T10:27:36.467Z,15.70
2019-02-28T10:28:36.457Z,16.70
2019-02-28T10:29:38.511Z,15.70
2019-02-28T10:30:37.432Z,19.00
2019-02-28T10:31:38.472Z,19.70
2019-02-28T10:32:36.421Z,16.90
2019-02-28T10:33:36.402Z,17.30
2019-02-28T10:34:36.403Z,15.30
2019-02-28T10:35:37.563Z,13.50
2019-02-28T10:36:36.410Z,15.20
2019-02-28T10:37:36.358Z,15.60
2019-02-28T10:38:36.349Z,16.40
2019-02-28T10:39:36.332Z,15.70
2019-02-28T10:40:36.321Z,18.30
2019-02-28T10:41:36.313Z,16.00
2019-02-28T10:42:36.999Z,19.90
2019-02-28T10:43:36.299Z,21.00
2019-02-28T10:44:36.275Z,17.70
2019-02-28T10:45:41.262Z,14.30
2019-02-28T10:46:37.252Z,18.30
2019-02-28T10:47:36.263Z,20.10
2019-02-28T10:48:41.879Z,14.10
2019-02-28T10:49:37.220Z,17.00
2019-02-28T10:50:36.211Z,21.90
2019-02-28T10:51:36.196Z,10.60
2019-02-28T10:52:36.213Z,15.70
2019-02-28T10:53:39.001Z,19.40
2019-02-28T10:54:36.165Z,15.60
2019-02-28T10:55:36.153Z,16.30
2019-02-28T10:56:36.140Z,17.50
2019-02-28T10:57:37.198Z,13.20
2019-02-28T10:58:36.132Z,15.30
2019-02-28T10:59:36.115Z,14.00
2019-02-28T11:00:36.094Z,14.80
2019-02-28T11:01:36.083Z,20.30
2019-02-28T11:02:36.075Z,14.60
2019-02-28T11:03:36.078Z,16.10
2019-02-28T11:04:36.060Z,15.20
2019-02-28T11:05:36.047Z,16.50
2019-02-28T11:06:36.028Z,13.80
2019-02-28T11:07:37.713Z,18.90
2019-02-28T11:08:36.042Z,21.20
2019-02-28T11:09:35.994Z,15.80
2019-02-28T11:10:36.314Z,20.10
2019-02-28T11:11:35.984Z,11.40
2019-02-28T11:12:35.962Z,23.60
2019-02-28T11:13:35.949Z,18.10
2019-02-28T11:14:38.661Z,18.40
2019-02-28T11:15:35.927Z,22.90
2019-02-28T11:16:36.177Z,16.70
2019-02-28T11:17:35.906Z,14.10
2019-02-28T11:18:36.497Z,17.40
2019-02-28T11:19:35.884Z,12.70
2019-02-28T11:20:35.882Z,12.90
2019-02-28T11:21:35.860Z,19.00
2019-02-28T11:22:36.565Z,18.90
2019-02-28T11:23:35.841Z,20.90
2019-02-28T11:24:35.837Z,13.40
2019-02-28T11:25:35.828Z,15.90
2019-02-28T11:26:35.818Z,14.70
2019-02-28T11:27:35.791Z,13.90
2019-02-28T11:28:35.782Z,18.20
2019-02-28T11:29:36.375Z,19.50
2019-02-28T11:30:36.200Z,26.80
2019-02-28T11:31:35.786Z,15.80
2019-02-28T11:32:35.742Z,15.10
2019-02-28T11:33:36.537Z,15.30
2019-02-28T11:34:35.722Z,18.30
2019-02-28T11:35:35.702Z,14.60
2019-02-28T11:36:35.691Z,16.80
2019-02-28T11:37:35.692Z,15.30
2019-02-28T11:38:35.682Z,15.20
2019-02-28T11:39:35.655Z,16.50
2019-02-28T11:40:35.645Z,10.40
2019-02-28T11:41:35.633Z,14.90
2019-02-28T11:42:35.634Z,12.90
2019-02-28T11:43:38.460Z,9.60
2019-02-28T11:44:35.615Z,17.20
2019-02-28T11:45:35.589Z,18.00
2019-02-28T11:46:36.557Z,16.30
2019-02-28T11:47:35.578Z,13.80
2019-02-28T11:48:35.571Z,16.70
2019-02-28T11:49:35.551Z,16.50
2019-02-28T11:50:41.235Z,16.80
2019-02-28T11:51:36.516Z,19.70
2019-02-28T11:52:35.523Z,19.60
2019-02-28T11:53:39.251Z,14.30
2019-02-28T11:54:35.487Z,15.90
2019-02-28T11:55:35.486Z,20.60
2019-02-28T11:56:35.470Z,14.90
2019-02-28T11:57:37.690Z,17.30
2019-02-28T11:58:36.441Z,14.30
2019-02-28T11:59:35.432Z,15.20
2019-02-28T12:00:36.567Z,16.90
2019-02-28T12:01:35.412Z,13.20
2019-02-28T12:02:35.403Z,15.70
2019-02-28T12:03:35.655Z,17.60
2019-02-28T12:04:37.405Z,12.90
2019-02-28T12:05:35.363Z,14.10
2019-02-28T12:06:35.350Z,10.90
2019-02-28T12:07:35.678Z,12.40
2019-02-28T12:08:35.335Z,14.40
2019-02-28T12:09:35.449Z,15.60
2019-02-28T12:10:35.322Z,18.20
2019-02-28T12:11:36.555Z,16.80
2019-02-28T12:12:35.281Z,15.60
2019-02-28T12:13:35.274Z,19.60
2019-02-28T12:14:35.265Z,16.10
2019-02-28T12:15:38.122Z,15.00
2019-02-28T12:16:35.355Z,11.70
2019-02-28T12:17:35.226Z,18.10
2019-02-28T12:18:39.489Z,18.90
2019-02-28T12:19:35.204Z,12.50
2019-02-28T12:20:35.201Z,17.60
2019-02-28T12:21:37.828Z,25.40
2019-02-28T12:22:35.207Z,15.90
2019-02-28T12:23:35.160Z,17.40
2019-02-28T12:24:35.148Z,14.90
2019-02-28T12:25:35.137Z,15.60
2019-02-28T12:26:35.132Z,24.30
2019-02-28T12:27:35.116Z,14.60
2019-02-28T12:28:37.976Z,17.90
2019-02-28T12:29:35.092Z,17.50
2019-02-28T12:30:35.081Z,13.70
2019-02-28T12:31:35.755Z,18.30
2019-02-28T12:32:35.064Z,14.40
2019-02-28T12:33:35.059Z,19.10
2019-02-28T12:34:35.033Z,19.40
2019-02-28T12:35:40.022Z,20.00
2019-02-28T12:36:36.008Z,16.70
2019-02-28T12:37:35.008Z,20.10
2019-02-28T12:38:35.014Z,14.60
2019-02-28T12:39:36.385Z,16.50
2019-02-28T12:40:34.977Z,14.00
2019-02-28T12:41:34.954Z,15.60
2019-02-28T12:42:35.371Z,14.50
2019-02-28T12:43:34.935Z,22.60
2019-02-28T12:44:34.945Z,17.50
2019-02-28T12:45:34.912Z,13.40
2019-02-28T12:46:34.908Z,17.10
2019-02-28T12:47:34.887Z,15.80
2019-02-28T12:48:34.877Z,23.00
2019-02-28T12:49:34.866Z,18.40
2019-02-28T12:50:34.859Z,18.60
2019-02-28T12:51:36.570Z,17.20
2019-02-28T12:52:34.830Z,14.50
2019-02-28T12:53:34.817Z,14.30
2019-02-28T12:54:34.813Z,21.60
2019-02-28T12:55:35.614Z,17.40
2019-02-28T12:56:34.811Z,20.30
2019-02-28T12:57:34.799Z,17.10
2019-02-28T12:58:38.658Z,14.40
2019-02-28T12:59:34.896Z,18.90
2019-02-28T13:00:34.743Z,20.40